Time;durP1;ratioP1;P1;durP2;ratioP2;P2;SDS_P1;SDS_P2;PMS_P1;PMS_P2;Temp;Humidity;BMP_temperature;BMP_pressure;BME280_temperature;BME280_humidity;BME280_pressure;Samples;Min_cycle;Max_cycle;Signal;HPM_P1;HPM_P2
2022/07/30 00:00:20;;;;;;;11.97;5.40;;;;;;;;;;5299402;28;20033;-83
2022/07/30 00:02:51;;;;;;;12.10;5.60;;;;;;;;;;5291444;28;20276;-83
2022/07/30 00:05:23;;;;;;;8.60;5.15;;;;;;;;;;5271473;28;20128;-83
2022/07/30 00:07:54;;;;;;;10.60;5.68;;;;;;;;;;5286707;28;20080;-83
2022/07/30 00:10:26;;;;;;;15.38;6.60;;;;;;;;;;5291475;28;20148;-83
2022/07/30 00:12:57;;;;;;;12.27;5.95;;;;;;;;;;5282482;28;20075;-83
2022/07/30 00:15:28;;;;;;;12.43;6.37;;;;;;;;;;5286718;28;20029;-83
2022/07/30 00:18:00;;;;;;;10.82;6.45;;;;;;;;;;5265603;28;20768;-83
2022/07/30 00:20:31;;;;;;;10.40;6.30;;;;;;;;;;5278387;28;20738;-83
2022/07/30 00:23:03;;;;;;;12.18;6.68;;;;;;;;;;5282287;28;20101;-83
2022/07/30 00:25:34;;;;;;;12.95;7.07;;;;;;;;;;5288634;28;20778;-83
2022/07/30 00:28:06;;;;;;;15.52;8.13;;;;;;;;;;5284941;28;20047;-83
2022/07/30 00:30:39;;;;;;;13.20;8.23;;;;;;;;;;5280798;28;20605;-83
2022/07/30 00:33:10;;;;;;;13.68;8.68;;;;;;;;;;5280402;28;20259;-83
2022/07/30 00:35:44;;;;;;;15.98;8.40;;;;;;;;;;5266034;28;20096;-83
2022/07/30 00:38:15;;;;;;;14.70;9.73;;;;;;;;;;5282690;28;20033;-83
2022/07/30 00:40:47;;;;;;;15.40;7.87;;;;;;;;;;5264508;28;21126;-82
2022/07/30 00:43:19;;;;;;;12.63;8.35;;;;;;;;;;5287113;28;20346;-83
2022/07/30 00:45:50;;;;;;;15.00;9.80;;;;;;;;;;5285620;28;20493;-82
2022/07/30 00:48:21;;;;;;;17.85;8.82;;;;;;;;;;5287675;28;20331;-82
2022/07/30 00:50:52;;;;;;;15.57;9.40;;;;;;;;;;5262142;28;20597;-83
2022/07/30 00:53:24;;;;;;;16.20;10.25;;;;;;;;;;5283781;28;20208;-83
2022/07/30 00:55:55;;;;;;;16.35;9.75;;;;;;;;;;5281474;28;20028;-83
2022/07/30 00:58:26;;;;;;;16.00;10.37;;;;;;;;;;5282908;28;20039;-83
2022/07/30 01:00:57;;;;;;;22.95;11.20;;;;;;;;;;5280437;28;20278;-83
2022/07/30 01:03:28;;;;;;;17.93;11.37;;;;;;;;;;5284176;28;20028;-83
2022/07/30 01:05:59;;;;;;;16.08;10.20;;;;;;;;;;5279046;28;20030;-83
2022/07/30 01:08:31;;;;;;;15.97;10.30;;;;;;;;;;5288563;28;20032;-83
2022/07/30 01:11:02;;;;;;;17.37;11.57;;;;;;;;;;5262749;28;20061;-83
2022/07/30 01:13:33;;;;;;;17.52;11.80;;;;;;;;;;5286436;28;20033;-83
2022/07/30 01:16:04;;;;;;;19.83;11.33;;;;;;;;;;5282950;28;20441;-83
2022/07/30 01:21:29;;;;;;;16.75;11.43;;;;;;;;;;5284912;28;20421;-83
2022/07/30 01:24:10;;;;;;;19.27;12.25;;;;;;;;;;5280885;28;20075;-83
2022/07/30 01:26:44;;;;;;;17.88;10.57;;;;;;;;;;5280535;28;20033;-83
2022/07/30 01:29:16;;;;;;;18.65;12.23;;;;;;;;;;5278934;28;20052;-83
2022/07/30 01:31:48;;;;;;;13.30;10.63;;;;;;;;;;5277576;28;20542;-83
2022/07/30 01:34:19;;;;;;;22.25;13.27;;;;;;;;;;5280373;28;20045;-83
2022/07/30 01:36:51;;;;;;;19.75;12.48;;;;;;;;;;5281483;28;20500;-83
2022/07/30 01:39:24;;;;;;;22.90;14.75;;;;;;;;;;5282865;28;20481;-83
2022/07/30 01:41:56;;;;;;;18.08;13.13;;;;;;;;;;5262801;28;20043;-83
2022/07/30 01:44:28;;;;;;;22.58;13.02;;;;;;;;;;5266280;28;20071;-83
2022/07/30 01:47:00;;;;;;;23.05;14.93;;;;;;;;;;5287379;28;20040;-83
2022/07/30 01:49:33;;;;;;;15.88;12.77;;;;;;;;;;5287213;28;20059;-83
2022/07/30 01:52:06;;;;;;;22.38;13.45;;;;;;;;;;5284437;28;21495;-83
2022/07/30 01:54:38;;;;;;;22.55;17.80;;;;;;;;;;5285289;28;20060;-83
2022/07/30 01:57:09;;;;;;;28.17;18.25;;;;;;;;;;5266300;28;20033;-83
2022/07/30 01:59:42;;;;;;;25.35;17.70;;;;;;;;;;5271947;28;20039;-83
2022/07/30 02:02:13;;;;;;;25.40;19.67;;;;;;;;;;5287272;28;20033;-83
2022/07/30 02:04:45;;;;;;;31.35;21.17;;;;;;;;;;5285903;28;20033;-83
2022/07/30 02:07:26;;;;;;;28.20;20.65;;;;;;;;;;5285348;28;20041;-84
2022/07/30 02:10:00;;;;;;;28.48;20.73;;;;;;;;;;5267315;28;20025;-83
2022/07/30 02:12:32;;;;;;;29.48;22.42;;;;;;;;;;5280443;28;20040;-83
2022/07/30 02:15:22;;;;;;;34.05;23.88;;;;;;;;;;5287918;28;20075;-83
2022/07/30 02:18:00;;;;;;;32.08;21.83;;;;;;;;;;5283925;28;20037;-83
2022/07/30 02:20:32;;;;;;;30.08;23.13;;;;;;;;;;5284843;28;20411;-83
2022/07/30 02:23:09;;;;;;;30.73;21.70;;;;;;;;;;5290197;28;20640;-83
2022/07/30 02:25:40;;;;;;;;;;;;;;;;;;5287349;28;20044;-83
2022/07/30 02:28:12;;;;;;;28.15;21.20;;;;;;;;;;5281840;28;19920;-83
2022/07/30 02:30:46;;;;;;;30.77;23.48;;;;;;;;;;5284378;28;20032;-83
2022/07/30 02:33:18;;;;;;;31.98;24.67;;;;;;;;;;5289863;28;20185;-83
2022/07/30 02:35:50;;;;;;;36.83;28.20;;;;;;;;;;5287193;28;20044;-83
2022/07/30 02:38:24;;;;;;;33.97;25.45;;;;;;;;;;5287128;28;20036;-83
2022/07/30 02:40:57;;;;;;;32.60;25.10;;;;;;;;;;5281398;28;20115;-83
2022/07/30 02:43:28;;;;;;;31.67;24.95;;;;;;;;;;5271787;28;20045;-84
2022/07/30 02:46:00;;;;;;;37.90;26.35;;;;;;;;;;5271702;28;20032;-83
2022/07/30 02:48:32;;;;;;;34.13;27.08;;;;;;;;;;5283977;28;20029;-83
2022/07/30 02:51:05;;;;;;;23.27;17.83;;;;;;;;;;5284357;28;20752;-83
2022/07/30 02:53:37;;;;;;;34.72;24.30;;;;;;;;;;5271874;28;20380;-83
2022/07/30 02:56:08;;;;;;;32.85;24.58;;;;;;;;;;5288004;28;20029;-83
2022/07/30 02:58:41;;;;;;;39.17;26.88;;;;;;;;;;5267174;28;20032;-82
2022/07/30 03:01:14;;;;;;;37.78;27.17;;;;;;;;;;5271776;28;20025;-83
2022/07/30 03:03:45;;;;;;;41.72;28.38;;;;;;;;;;5314164;28;20029;-83
2022/07/30 03:06:17;;;;;;;36.42;28.27;;;;;;;;;;5312015;27;20021;-84
2022/07/30 03:08:48;;;;;;;31.33;24.15;;;;;;;;;;5313428;28;20163;-83
2022/07/30 03:11:19;;;;;;;41.97;30.33;;;;;;;;;;5298288;28;20041;-83
2022/07/30 03:13:51;;;;;;;48.78;35.35;;;;;;;;;;5296002;28;20044;-83
2022/07/30 03:16:23;;;;;;;56.72;36.97;;;;;;;;;;5284099;28;20033;-83
2022/07/30 03:18:56;;;;;;;59.45;37.85;;;;;;;;;;5285231;28;21296;-83
2022/07/30 03:21:27;;;;;;;35.67;28.63;;;;;;;;;;5287484;28;20025;-83
2022/07/30 03:24:02;;;;;;;45.22;33.10;;;;;;;;;;5284470;28;20041;-83
2022/07/30 03:26:34;;;;;;;47.88;31.63;;;;;;;;;;5288149;28;20115;-83
2022/07/30 03:29:05;;;;;;;33.22;25.63;;;;;;;;;;5288243;28;20458;-83
2022/07/30 03:31:37;;;;;;;47.63;37.35;;;;;;;;;;5284104;28;20112;-83
2022/07/30 03:34:09;;;;;;;53.97;37.25;;;;;;;;;;5281348;28;20033;-83
2022/07/30 03:36:40;;;;;;;43.08;30.33;;;;;;;;;;5282659;28;20034;-83
2022/07/30 03:39:12;;;;;;;43.80;33.60;;;;;;;;;;5269018;28;20021;-83
2022/07/30 03:41:44;;;;;;;52.75;34.75;;;;;;;;;;5286648;28;20284;-83
2022/07/30 03:44:15;;;;;;;40.05;30.80;;;;;;;;;;5281769;28;20019;-83
2022/07/30 03:46:49;;;;;;;45.28;32.33;;;;;;;;;;5282008;28;20037;-83
2022/07/30 03:49:20;;;;;;;52.47;36.53;;;;;;;;;;5283591;28;20016;-83
2022/07/30 03:51:52;;;;;;;46.30;34.05;;;;;;;;;;5286336;28;20087;-83
2022/07/30 03:54:24;;;;;;;42.55;31.90;;;;;;;;;;5280196;28;20094;-83
2022/07/30 03:56:55;;;;;;;43.40;29.58;;;;;;;;;;5279130;28;20025;-83
2022/07/30 03:59:27;;;;;;;45.35;32.60;;;;;;;;;;5287847;28;20480;-83
2022/07/30 04:02:00;;;;;;;42.15;31.05;;;;;;;;;;5287061;28;20030;-83
2022/07/30 04:04:31;;;;;;;50.17;36.70;;;;;;;;;;5271205;28;20477;-84
2022/07/30 04:07:02;;;;;;;41.80;30.97;;;;;;;;;;5284467;28;20032;-83
2022/07/30 04:09:33;;;;;;;49.20;33.55;;;;;;;;;;5284793;28;20290;-83
2022/07/30 04:12:05;;;;;;;44.60;31.97;;;;;;;;;;5286738;28;20896;-83
2022/07/30 04:14:38;;;;;;;43.05;32.92;;;;;;;;;;5282232;28;20271;-83
2022/07/30 04:17:12;;;;;;;50.45;33.72;;;;;;;;;;5259566;28;20150;-83
2022/07/30 04:19:48;;;;;;;46.22;34.55;;;;;;;;;;5264404;28;20124;-83
2022/07/30 04:22:22;;;;;;;47.33;32.72;;;;;;;;;;5263007;28;20100;-84
2022/07/30 04:24:56;;;;;;;53.85;35.13;;;;;;;;;;5263762;28;20042;-86
2022/07/30 04:27:28;;;;;;;44.20;32.20;;;;;;;;;;5267967;28;20036;-82
2022/07/30 04:29:59;;;;;;;52.92;36.40;;;;;;;;;;5284688;28;20429;-81
2022/07/30 04:32:31;;;;;;;60.53;38.25;;;;;;;;;;5264560;28;20040;-81
2022/07/30 04:35:03;;;;;;;56.13;39.15;;;;;;;;;;5265676;28;20130;-81
2022/07/30 04:37:34;;;;;;;49.47;34.67;;;;;;;;;;5263367;28;20036;-82
2022/07/30 04:40:05;;;;;;;42.37;31.63;;;;;;;;;;5268162;28;20025;-82
2022/07/30 04:42:36;;;;;;;46.72;34.22;;;;;;;;;;5256764;28;20692;-81
2022/07/30 04:45:08;;;;;;;53.53;35.38;;;;;;;;;;5264960;28;20037;-81
2022/07/30 04:47:39;;;;;;;57.47;36.63;;;;;;;;;;5286773;28;20133;-81
2022/07/30 04:50:11;;;;;;;56.85;36.28;;;;;;;;;;5285071;28;20039;-80
2022/07/30 04:52:42;;;;;;;55.80;38.70;;;;;;;;;;5281781;28;20127;-81
2022/07/30 04:55:13;;;;;;;59.13;37.25;;;;;;;;;;5284449;28;20040;-81
2022/07/30 04:57:46;;;;;;;60.50;39.72;;;;;;;;;;5283416;28;20029;-82
2022/07/30 05:00:17;;;;;;;58.10;41.03;;;;;;;;;;5275416;28;20026;-83
2022/07/30 05:02:50;;;;;;;65.55;40.85;;;;;;;;;;5280760;28;20401;-81
2022/07/30 05:05:22;;;;;;;55.33;42.47;;;;;;;;;;5282424;28;20082;-81
2022/07/30 05:07:53;;;;;;;64.30;42.40;;;;;;;;;;5282727;28;20039;-82
2022/07/30 05:10:25;;;;;;;61.35;43.33;;;;;;;;;;5275144;28;20025;-82
2022/07/30 05:12:56;;;;;;;69.80;43.83;;;;;;;;;;5265645;28;20045;-82
2022/07/30 05:15:28;;;;;;;62.93;43.07;;;;;;;;;;5260279;28;20060;-82
2022/07/30 05:17:59;;;;;;;57.60;40.83;;;;;;;;;;5281154;28;20291;-81
2022/07/30 05:20:31;;;;;;;59.47;42.30;;;;;;;;;;5278333;28;20025;-82
2022/07/30 05:23:02;;;;;;;59.33;42.77;;;;;;;;;;5270029;28;20120;-83
2022/07/30 05:25:33;;;;;;;67.75;44.25;;;;;;;;;;5272749;28;20806;-82
2022/07/30 05:28:05;;;;;;;65.40;41.73;;;;;;;;;;5279728;28;20096;-82
2022/07/30 05:30:36;;;;;;;52.55;36.30;;;;;;;;;;5297300;28;20271;-82
2022/07/30 05:33:07;;;;;;;63.92;42.28;;;;;;;;;;5262812;28;20041;-82
2022/07/30 05:35:38;;;;;;;64.00;43.53;;;;;;;;;;5262401;28;20516;-82
2022/07/30 05:38:10;;;;;;;61.03;43.47;;;;;;;;;;5267385;28;20329;-83
2022/07/30 05:40:41;;;;;;;53.05;40.03;;;;;;;;;;5297210;28;20276;-83
2022/07/30 05:43:12;;;;;;;48.83;37.33;;;;;;;;;;5284878;28;20047;-83
2022/07/30 05:45:43;;;;;;;52.70;37.55;;;;;;;;;;5275672;28;20083;-83
2022/07/30 05:48:15;;;;;;;32.50;27.17;;;;;;;;;;5278447;28;20030;-83
2022/07/30 05:50:46;;;;;;;31.77;24.02;;;;;;;;;;5273529;28;20101;-83
2022/07/30 05:53:17;;;;;;;25.52;19.73;;;;;;;;;;5264399;28;20446;-83
2022/07/30 05:55:48;;;;;;;23.85;20.42;;;;;;;;;;5302498;28;20028;-83
2022/07/30 05:58:19;;;;;;;29.97;21.57;;;;;;;;;;5281875;28;20048;-84
2022/07/30 06:00:51;;;;;;;15.27;13.70;;;;;;;;;;5262521;28;20025;-84
2022/07/30 06:03:22;;;;;;;15.03;13.43;;;;;;;;;;5260918;28;20022;-84
2022/07/30 06:05:53;;;;;;;16.55;13.63;;;;;;;;;;5283145;28;20118;-84
2022/07/30 06:08:24;;;;;;;15.27;13.10;;;;;;;;;;5263383;28;20025;-84
2022/07/30 06:10:55;;;;;;;14.40;12.65;;;;;;;;;;5283531;28;20632;-84
2022/07/30 06:13:27;;;;;;;18.73;13.30;;;;;;;;;;5302323;28;20417;-84
2022/07/30 06:15:58;;;;;;;13.10;11.77;;;;;;;;;;5292159;28;20244;-84
2022/07/30 06:18:29;;;;;;;14.57;11.60;;;;;;;;;;5252758;28;20282;-84
2022/07/30 06:21:00;;;;;;;12.27;10.10;;;;;;;;;;5290368;28;20032;-84
2022/07/30 06:23:32;;;;;;;14.07;9.47;;;;;;;;;;5285811;28;20110;-84
2022/07/30 06:26:03;;;;;;;12.37;8.80;;;;;;;;;;5282815;28;20303;-84
2022/07/30 06:28:34;;;;;;;13.57;8.83;;;;;;;;;;5258204;28;20042;-84
2022/07/30 06:31:06;;;;;;;12.15;8.40;;;;;;;;;;5287065;28;20298;-84
2022/07/30 06:33:37;;;;;;;15.80;6.88;;;;;;;;;;5283632;28;20029;-84
2022/07/30 06:36:08;;;;;;;10.97;8.47;;;;;;;;;;5304410;28;20032;-84
2022/07/30 06:38:39;;;;;;;11.73;7.57;;;;;;;;;;5307006;28;20036;-84
2022/07/30 06:41:11;;;;;;;9.65;7.60;;;;;;;;;;5269841;28;20026;-82
2022/07/30 06:43:42;;;;;;;8.77;6.88;;;;;;;;;;5293042;28;20021;-83
2022/07/30 06:46:13;;;;;;;9.43;5.63;;;;;;;;;;5268249;28;20029;-82
2022/07/30 06:48:45;;;;;;;11.52;6.13;;;;;;;;;;5284599;28;20033;-82
2022/07/30 06:51:16;;;;;;;9.13;5.23;;;;;;;;;;5279587;28;20033;-82
2022/07/30 06:53:47;;;;;;;10.32;5.35;;;;;;;;;;5246926;28;20402;-82
2022/07/30 06:56:18;;;;;;;8.90;4.63;;;;;;;;;;5301993;28;20631;-82
2022/07/30 06:58:49;;;;;;;8.43;4.20;;;;;;;;;;5306980;28;20246;-82
2022/07/30 07:01:22;;;;;;;15.83;4.47;;;;;;;;;;5285841;28;20494;-82
2022/07/30 07:03:53;;;;;;;7.07;4.60;;;;;;;;;;5268779;28;20279;-82
2022/07/30 07:06:24;;;;;;;7.83;4.43;;;;;;;;;;5304340;28;20035;-83
2022/07/30 07:08:55;;;;;;;13.37;4.20;;;;;;;;;;5306549;28;20244;-82
2022/07/30 07:11:27;;;;;;;7.90;3.30;;;;;;;;;;5287420;28;20398;-82
2022/07/30 07:13:58;;;;;;;8.10;3.00;;;;;;;;;;5286260;28;20060;-82
2022/07/30 07:16:29;;;;;;;6.45;3.10;;;;;;;;;;5299435;28;20283;-82
2022/07/30 07:19:00;;;;;;;6.20;2.80;;;;;;;;;;5284421;28;20082;-82
2022/07/30 07:21:32;;;;;;;8.77;3.37;;;;;;;;;;5283406;28;20028;-83
2022/07/30 07:24:04;;;;;;;6.63;2.50;;;;;;;;;;5300396;28;20636;-83
2022/07/30 07:26:35;;;;;;;7.32;2.97;;;;;;;;;;5303216;28;20040;-83
2022/07/30 07:29:06;;;;;;;6.03;2.60;;;;;;;;;;5298457;28;20392;-83
2022/07/30 07:31:37;;;;;;;7.78;3.50;;;;;;;;;;5263269;28;20041;-83
2022/07/30 07:34:08;;;;;;;6.90;2.50;;;;;;;;;;5284392;28;20045;-83
2022/07/30 07:36:40;;;;;;;9.07;3.47;;;;;;;;;;5284920;28;20421;-83
2022/07/30 07:39:11;;;;;;;5.73;2.13;;;;;;;;;;5266168;28;20032;-82
2022/07/30 07:41:42;;;;;;;6.03;2.55;;;;;;;;;;5281015;28;20037;-82
2022/07/30 07:44:13;;;;;;;5.82;2.15;;;;;;;;;;5272373;28;20029;-82
2022/07/30 07:46:44;;;;;;;8.87;2.73;;;;;;;;;;5277545;28;20573;-82
2022/07/30 07:49:16;;;;;;;7.07;1.93;;;;;;;;;;5270658;28;20386;-83
2022/07/30 07:51:47;;;;;;;6.47;1.77;;;;;;;;;;5280431;28;20449;-82
2022/07/30 07:54:18;;;;;;;6.47;1.67;;;;;;;;;;5275454;28;20063;-82
2022/07/30 07:56:50;;;;;;;5.77;2.00;;;;;;;;;;5288567;28;20143;-82
2022/07/30 07:59:22;;;;;;;5.20;2.17;;;;;;;;;;5287151;28;20283;-82
2022/07/30 08:01:53;;;;;;;8.60;1.95;;;;;;;;;;5298106;28;20031;-82
2022/07/30 08:04:24;;;;;;;9.60;1.83;;;;;;;;;;5277206;28;20048;-83
2022/07/30 08:06:55;;;;;;;6.40;2.22;;;;;;;;;;5286854;28;20389;-82
2022/07/30 08:09:27;;;;;;;8.17;2.23;;;;;;;;;;5280854;28;20199;-83
2022/07/30 08:11:59;;;;;;;4.95;2.00;;;;;;;;;;5280866;28;20035;-82
2022/07/30 08:14:30;;;;;;;5.35;1.90;;;;;;;;;;5278522;28;20027;-82
2022/07/30 08:17:01;;;;;;;5.90;2.23;;;;;;;;;;5276906;28;20033;-82
2022/07/30 08:19:32;;;;;;;4.63;2.03;;;;;;;;;;5275345;28;20505;-82
2022/07/30 08:22:04;;;;;;;5.45;1.77;;;;;;;;;;5280154;28;20508;-82
2022/07/30 08:24:35;;;;;;;5.97;2.20;;;;;;;;;;5278860;28;20085;-82
2022/07/30 08:27:06;;;;;;;4.00;1.50;;;;;;;;;;5279067;28;20029;-82
2022/07/30 08:29:37;;;;;;;4.33;1.50;;;;;;;;;;5279924;28;20044;-82
2022/07/30 08:32:08;;;;;;;4.07;1.50;;;;;;;;;;5276320;28;20132;-82
2022/07/30 08:34:40;;;;;;;4.63;1.37;;;;;;;;;;5277600;28;20016;-83
2022/07/30 08:37:11;;;;;;;3.57;1.53;;;;;;;;;;5277509;28;20128;-83
2022/07/30 08:39:42;;;;;;;5.17;1.90;;;;;;;;;;5278081;28;20493;-83
2022/07/30 08:42:13;;;;;;;4.77;1.93;;;;;;;;;;5274423;28;20048;-83
2022/07/30 08:44:45;;;;;;;4.40;1.60;;;;;;;;;;5275240;28;20025;-82
2022/07/30 08:47:17;;;;;;;3.47;1.40;;;;;;;;;;5257452;28;20029;-82
2022/07/30 08:49:49;;;;;;;5.70;1.60;;;;;;;;;;5268622;28;20032;-82
2022/07/30 08:52:20;;;;;;;4.65;1.73;;;;;;;;;;5264451;28;20029;-82
2022/07/30 08:54:51;;;;;;;3.97;1.63;;;;;;;;;;5263247;28;20040;-82
2022/07/30 08:57:23;;;;;;;3.57;1.10;;;;;;;;;;5267051;28;20163;-82
2022/07/30 08:59:55;;;;;;;4.75;1.40;;;;;;;;;;5284722;28;20140;-83
2022/07/30 09:02:28;;;;;;;6.07;1.77;;;;;;;;;;5283136;28;20031;-82
2022/07/30 09:05:01;;;;;;;8.07;1.40;;;;;;;;;;5283489;28;20031;-82
2022/07/30 09:07:32;;;;;;;5.50;1.60;;;;;;;;;;5283826;28;21025;-82
2022/07/30 09:10:05;;;;;;;4.93;1.50;;;;;;;;;;5263621;28;20563;-82
2022/07/30 09:12:40;;;;;;;6.20;1.48;;;;;;;;;;5279010;28;20037;-83
2022/07/30 09:15:16;;;;;;;4.90;1.40;;;;;;;;;;5244451;28;20049;-82
2022/07/30 09:17:47;;;;;;;4.40;1.30;;;;;;;;;;5263633;28;20382;-82
2022/07/30 09:20:19;;;;;;;4.17;1.30;;;;;;;;;;5268455;28;20350;-82
2022/07/30 09:22:52;;;;;;;5.50;1.27;;;;;;;;;;5265544;28;20056;-82
2022/07/30 09:25:32;;;;;;;3.72;1.23;;;;;;;;;;5274710;28;20045;-83
2022/07/30 09:28:04;;;;;;;4.03;1.42;;;;;;;;;;5268746;28;20491;-82
2022/07/30 09:30:43;;;;;;;3.08;1.17;;;;;;;;;;5254318;28;20026;-82
2022/07/30 09:33:14;;;;;;;3.90;1.60;;;;;;;;;;5279385;28;20079;-82
2022/07/30 09:35:54;;;;;;;4.13;1.25;;;;;;;;;;5289595;28;20060;-82
2022/07/30 09:38:25;;;;;;;6.85;1.77;;;;;;;;;;5301171;28;20012;-82
2022/07/30 09:40:57;;;;;;;4.85;1.30;;;;;;;;;;5273614;28;20540;-82
2022/07/30 09:43:28;;;;;;;3.15;1.05;;;;;;;;;;5283590;28;20031;-82
2022/07/30 09:46:00;;;;;;;2.07;0.93;;;;;;;;;;5267539;28;20029;-82
2022/07/30 09:48:31;;;;;;;3.05;1.20;;;;;;;;;;5283959;28;20025;-82
2022/07/30 09:51:02;;;;;;;4.60;1.30;;;;;;;;;;5282220;28;20025;-82
2022/07/30 09:53:34;;;;;;;2.30;1.00;;;;;;;;;;5270914;28;20383;-82
2022/07/30 09:56:24;;;;;;;2.50;1.02;;;;;;;;;;5270382;28;20362;-82
2022/07/30 09:58:56;;;;;;;2.47;1.20;;;;;;;;;;5288767;28;20539;-82
2022/07/30 10:01:27;;;;;;;2.80;1.10;;;;;;;;;;5272435;28;20045;-82
2022/07/30 10:03:58;;;;;;;5.10;1.40;;;;;;;;;;5275213;28;20390;-82
2022/07/30 10:06:33;;;;;;;3.07;1.13;;;;;;;;;;5274928;28;20029;-82
2022/07/30 10:09:04;;;;;;;4.53;1.20;;;;;;;;;;5286317;28;20029;-82
2022/07/30 10:11:36;;;;;;;2.90;1.07;;;;;;;;;;5285917;28;20132;-82
2022/07/30 10:14:07;;;;;;;2.67;0.93;;;;;;;;;;5296553;28;20040;-81
2022/07/30 10:16:38;;;;;;;2.43;0.90;;;;;;;;;;5301421;28;20036;-81
2022/07/30 10:19:11;;;;;;;2.65;0.80;;;;;;;;;;5294359;28;20049;-81
2022/07/30 10:21:42;;;;;;;3.25;1.02;;;;;;;;;;5295499;28;20034;-82
2022/07/30 10:24:16;;;;;;;1.98;0.90;;;;;;;;;;5285235;28;20055;-82
2022/07/30 10:26:48;;;;;;;1.55;0.70;;;;;;;;;;5264052;28;20025;-82
2022/07/30 10:29:21;;;;;;;3.28;0.70;;;;;;;;;;5285156;28;20138;-82
2022/07/30 10:31:52;;;;;;;4.87;1.07;;;;;;;;;;5286176;28;20064;-82
2022/07/30 10:34:23;;;;;;;2.90;0.90;;;;;;;;;;5266150;28;20293;-82
2022/07/30 10:36:59;;;;;;;3.13;1.00;;;;;;;;;;5296731;28;20036;-82
2022/07/30 10:39:34;;;;;;;4.03;0.90;;;;;;;;;;5290306;28;20272;-82
2022/07/30 10:42:05;;;;;;;2.88;0.98;;;;;;;;;;5281814;28;20044;-82
2022/07/30 10:44:45;;;;;;;3.20;0.90;;;;;;;;;;5269062;28;20025;-82
2022/07/30 10:47:17;;;;;;;2.97;1.00;;;;;;;;;;5256480;28;20044;-82
2022/07/30 10:50:08;;;;;;;3.00;0.90;;;;;;;;;;5277723;28;20025;-82
2022/07/30 10:52:50;;;;;;;2.63;1.10;;;;;;;;;;5266537;28;20048;-82
2022/07/30 10:55:28;;;;;;;3.25;0.90;;;;;;;;;;5264475;28;20197;-82
2022/07/30 10:58:00;;;;;;;1.98;0.70;;;;;;;;;;5252228;28;20033;-82
2022/07/30 11:00:33;;;;;;;4.95;1.30;;;;;;;;;;5285126;28;20421;-82
2022/07/30 11:03:22;;;;;;;2.10;0.88;;;;;;;;;;5267306;28;20033;-82
2022/07/30 11:06:11;;;;;;;4.28;0.85;;;;;;;;;;5281015;28;20112;-82
2022/07/30 11:08:47;;;;;;;2.25;1.00;;;;;;;;;;5282574;28;20478;-82
2022/07/30 11:11:21;;;;;;;3.58;1.00;;;;;;;;;;5255176;28;20048;-82
2022/07/30 11:13:52;;;;;;;;;;;;;;;;;;5265370;28;20029;-82
2022/07/30 11:16:44;;;;;;;2.47;0.83;;;;;;;;;;5264417;28;20278;-82
2022/07/30 11:19:16;;;;;;;3.30;0.90;;;;;;;;;;5263422;28;20465;-82
2022/07/30 11:22:07;;;;;;;1.77;0.82;;;;;;;;;;5285538;28;20051;-82
2022/07/30 11:24:45;;;;;;;2.50;0.93;;;;;;;;;;5265389;28;20037;-82
2022/07/30 11:27:49;;;;;;;3.92;1.00;;;;;;;;;;5286130;28;20035;-82
2022/07/30 11:30:20;;;;;;;5.22;0.95;;;;;;;;;;5228608;28;20033;-82
2022/07/30 11:32:52;;;;;;;3.43;0.80;;;;;;;;;;5270525;28;20029;-82
2022/07/30 11:35:29;;;;;;;3.70;1.00;;;;;;;;;;5261872;28;20034;-82
2022/07/30 11:38:03;;;;;;;3.35;0.93;;;;;;;;;;5274467;28;20036;-82
2022/07/30 11:40:36;;;;;;;4.47;1.05;;;;;;;;;;5275001;28;20430;-82
2022/07/30 11:43:14;;;;;;;3.53;1.00;;;;;;;;;;5272627;28;20112;-82
2022/07/30 11:46:03;;;;;;;7.28;1.20;;;;;;;;;;5283509;28;20112;-82
2022/07/30 11:48:38;;;;;;;4.07;1.17;;;;;;;;;;5284548;28;20032;-82
2022/07/30 11:51:10;;;;;;;2.70;1.15;;;;;;;;;;5283133;28;20492;-82
2022/07/30 11:53:41;;;;;;;4.13;1.30;;;;;;;;;;5264431;28;20069;-82
2022/07/30 11:56:13;;;;;;;4.70;1.23;;;;;;;;;;5246680;28;20018;-82
2022/07/30 11:58:44;;;;;;;3.90;1.13;;;;;;;;;;5284223;28;20082;-82
2022/07/30 12:01:15;;;;;;;3.87;1.00;;;;;;;;;;5278318;28;20029;-82
2022/07/30 12:03:47;;;;;;;4.03;1.08;;;;;;;;;;5264329;28;20308;-82
2022/07/30 12:06:20;;;;;;;4.23;1.30;;;;;;;;;;5284274;28;20379;-82
2022/07/30 12:08:52;;;;;;;2.80;1.20;;;;;;;;;;5283148;28;20274;-82
2022/07/30 12:11:24;;;;;;;4.60;1.10;;;;;;;;;;5284222;28;20459;-82
2022/07/30 12:13:58;;;;;;;3.90;0.98;;;;;;;;;;5287248;28;20017;-82
2022/07/30 12:16:30;;;;;;;2.55;0.98;;;;;;;;;;5284314;28;20028;-82
2022/07/30 12:19:03;;;;;;;5.22;1.30;;;;;;;;;;5283492;28;20067;-82
2022/07/30 12:21:34;;;;;;;8.02;1.30;;;;;;;;;;5278933;28;20051;-80
2022/07/30 12:24:06;;;;;;;3.47;1.13;;;;;;;;;;5294139;28;21143;-81
2022/07/30 12:26:37;;;;;;;3.42;1.08;;;;;;;;;;5295223;28;20033;-82
2022/07/30 12:29:10;;;;;;;5.87;1.10;;;;;;;;;;5278652;28;20085;-81
2022/07/30 12:31:41;;;;;;;3.63;1.25;;;;;;;;;;5288575;28;20116;-82
2022/07/30 12:34:20;;;;;;;2.58;1.00;;;;;;;;;;5274681;28;20136;-82
2022/07/30 12:36:51;;;;;;;2.90;1.08;;;;;;;;;;5305926;28;20032;-82
2022/07/30 12:39:24;;;;;;;6.82;1.35;;;;;;;;;;5287592;28;20025;-82
2022/07/30 12:41:55;;;;;;;4.00;1.10;;;;;;;;;;5282564;28;20465;-83
2022/07/30 12:44:35;;;;;;;5.60;1.40;;;;;;;;;;5281677;28;20017;-82
2022/07/30 12:47:25;;;;;;;6.05;1.35;;;;;;;;;;5280444;28;20057;-82
2022/07/30 12:49:58;;;;;;;14.10;1.73;;;;;;;;;;5262173;28;20025;-82
2022/07/30 12:52:34;;;;;;;4.47;1.38;;;;;;;;;;5266760;28;20052;-82
2022/07/30 12:55:09;;;;;;;11.23;1.40;;;;;;;;;;5285787;28;20465;-82
2022/07/30 12:58:12;;;;;;;5.05;1.38;;;;;;;;;;5291069;28;20028;-82
2022/07/30 13:00:51;;;;;;;4.97;1.30;;;;;;;;;;5251444;28;20461;-82
2022/07/30 13:03:23;;;;;;;4.78;1.63;;;;;;;;;;5270529;28;20029;-82
2022/07/30 13:05:55;;;;;;;4.88;1.55;;;;;;;;;;5285150;28;20119;-82
2022/07/30 13:08:45;;;;;;;6.97;1.58;;;;;;;;;;5285673;28;20055;-82
2022/07/30 13:11:17;;;;;;;6.53;1.52;;;;;;;;;;5260535;28;20032;-82
2022/07/30 13:13:49;;;;;;;9.88;1.80;;;;;;;;;;5276743;28;20036;-82
2022/07/30 13:16:20;;;;;;;5.32;1.80;;;;;;;;;;5268190;28;20028;-82
2022/07/30 13:18:52;;;;;;;8.27;1.58;;;;;;;;;;5279152;28;20025;-82
2022/07/30 13:21:23;;;;;;;6.30;1.70;;;;;;;;;;5268853;28;20037;-82
2022/07/30 13:23:54;;;;;;;6.20;1.45;;;;;;;;;;5281446;28;20027;-82
2022/07/30 13:26:28;;;;;;;7.00;1.57;;;;;;;;;;5269041;28;20215;-83
2022/07/30 13:28:59;;;;;;;3.95;1.58;;;;;;;;;;5259361;28;20099;-83
2022/07/30 13:31:30;;;;;;;7.33;1.50;;;;;;;;;;5259188;28;20068;-82
2022/07/30 13:34:01;;;;;;;5.30;1.40;;;;;;;;;;5287138;28;20031;-82
2022/07/30 13:36:33;;;;;;;6.00;1.30;;;;;;;;;;5273070;28;20032;-82
2022/07/30 13:39:04;;;;;;;6.13;1.58;;;;;;;;;;5284991;28;20033;-83
2022/07/30 13:41:35;;;;;;;5.50;1.50;;;;;;;;;;5284443;28;20044;-82
2022/07/30 13:44:06;;;;;;;6.43;1.50;;;;;;;;;;5285246;28;20020;-83
2022/07/30 13:46:38;;;;;;;4.97;1.60;;;;;;;;;;5281590;28;20091;-83
2022/07/30 13:49:09;;;;;;;3.20;1.30;;;;;;;;;;5293453;28;20032;-83
2022/07/30 13:51:40;;;;;;;6.25;1.60;;;;;;;;;;5277937;28;20405;-82
2022/07/30 13:54:11;;;;;;;7.80;2.10;;;;;;;;;;5268369;28;20025;-82
2022/07/30 13:56:43;;;;;;;3.73;1.47;;;;;;;;;;5262358;28;20037;-82
2022/07/30 13:59:14;;;;;;;7.27;1.60;;;;;;;;;;5283172;28;20022;-82
2022/07/30 14:01:54;;;;;;;5.37;1.60;;;;;;;;;;5280091;28;20389;-82
2022/07/30 14:04:27;;;;;;;5.07;1.70;;;;;;;;;;5266809;28;20029;-82
2022/07/30 14:06:59;;;;;;;3.72;1.33;;;;;;;;;;5263247;28;21144;-82
2022/07/30 14:09:30;;;;;;;3.03;1.40;;;;;;;;;;5283369;28;20025;-82
2022/07/30 14:12:01;;;;;;;8.17;1.80;;;;;;;;;;5267157;28;20048;-82
2022/07/30 14:14:32;;;;;;;5.57;1.33;;;;;;;;;;5265614;28;20371;-82
2022/07/30 14:17:03;;;;;;;6.10;1.50;;;;;;;;;;5282130;28;20293;-82
2022/07/30 14:19:35;;;;;;;6.40;2.10;;;;;;;;;;5279549;28;20113;-81
2022/07/30 14:22:06;;;;;;;7.00;1.50;;;;;;;;;;5281529;28;20052;-82
2022/07/30 14:24:37;;;;;;;6.07;1.27;;;;;;;;;;5268526;28;20132;-82
2022/07/30 14:27:08;;;;;;;7.20;1.57;;;;;;;;;;5284710;28;20040;-82
2022/07/30 14:29:39;;;;;;;7.80;1.30;;;;;;;;;;5275311;28;20299;-82
2022/07/30 14:32:11;;;;;;;5.30;1.40;;;;;;;;;;5274789;28;20099;-82
2022/07/30 14:34:42;;;;;;;4.03;1.20;;;;;;;;;;5289824;28;20027;-81
2022/07/30 14:37:13;;;;;;;6.90;1.17;;;;;;;;;;5292066;28;20723;-81
2022/07/30 14:39:44;;;;;;;6.00;1.50;;;;;;;;;;5277510;28;20124;-82
2022/07/30 14:42:15;;;;;;;7.33;1.40;;;;;;;;;;5290495;28;20036;-81
2022/07/30 14:44:48;;;;;;;4.87;1.30;;;;;;;;;;5264598;28;20390;-81
2022/07/30 14:47:19;;;;;;;5.22;1.55;;;;;;;;;;5290062;28;20123;-81
2022/07/30 14:49:50;;;;;;;4.97;1.17;;;;;;;;;;5288044;28;20092;-81
2022/07/30 14:52:21;;;;;;;5.35;1.60;;;;;;;;;;5292498;28;20060;-81
2022/07/30 14:54:53;;;;;;;5.97;1.40;;;;;;;;;;5274819;28;20036;-81
2022/07/30 14:57:24;;;;;;;4.23;1.70;;;;;;;;;;5294836;28;20024;-81
2022/07/30 14:59:55;;;;;;;4.93;1.70;;;;;;;;;;5290762;28;20480;-81
2022/07/30 15:02:26;;;;;;;4.17;1.53;;;;;;;;;;5297476;28;20388;-81
2022/07/30 15:04:57;;;;;;;7.90;1.50;;;;;;;;;;5292631;28;20021;-81
2022/07/30 15:07:29;;;;;;;5.77;1.53;;;;;;;;;;5283073;28;20651;-81